JTA211 ROAH-ROKJ
Flight info
| Callsign | JTA211 |
|---|---|
| Flight time | 0h 20m |
| Altitude | 8000 |
| Route | DORIS |
| Aircraft | DH8D/M-SDE2E3FGRY/H |
Departure
| Time | 2026-05-05 13:24 |
|---|---|
| Airport | Naha International Airport (ROAH) |
Arrival
| Time | 2026-05-05 13:44 |
|---|---|
| Airport | Kumejima Airport (ROKJ) |
| Time | Latitude | Longitude | Altitude | Speed | Heading |
|---|---|---|---|---|---|
| 2026-05-05 13:15 | 26.20243 | 127.64828 | 12 ft | 0 kts | 88° |
| 2026-05-05 13:16 | 26.20243 | 127.64829 | 12 ft | 0 kts | 88° |
| 2026-05-05 13:17 | 26.20243 | 127.64816 | 12 ft | 2 kts | 88° |
| 2026-05-05 13:17 | 26.20242 | 127.64799 | 12 ft | 2 kts | 88° |
| 2026-05-05 13:17 | 26.20241 | 127.64784 | 12 ft | 2 kts | 88° |
| 2026-05-05 13:17 | 26.20242 | 127.64769 | 12 ft | 1 kts | 109° |
| 2026-05-05 13:18 | 26.20249 | 127.64759 | 12 ft | 1 kts | 152° |
| 2026-05-05 13:18 | 26.20257 | 127.64757 | 12 ft | 1 kts | 178° |
| 2026-05-05 13:18 | 26.20258 | 127.64757 | 12 ft | 0 kts | 178° |
| 2026-05-05 13:19 | 26.20234 | 127.64760 | 12 ft | 9 kts | 173° |
| 2026-05-05 13:19 | 26.20139 | 127.64767 | 12 ft | 17 kts | 178° |
| 2026-05-05 13:20 | 26.19995 | 127.64773 | 12 ft | 21 kts | 178° |
| 2026-05-05 13:20 | 26.19856 | 127.64780 | 12 ft | 18 kts | 177° |
| 2026-05-05 13:20 | 26.19737 | 127.64786 | 12 ft | 15 kts | 180° |
| 2026-05-05 13:20 | 26.19633 | 127.64790 | 12 ft | 15 kts | 177° |
| 2026-05-05 13:21 | 26.19481 | 127.64798 | 12 ft | 21 kts | 178° |
| 2026-05-05 13:21 | 26.19331 | 127.64805 | 12 ft | 26 kts | 177° |
| 2026-05-05 13:21 | 26.19157 | 127.64812 | 12 ft | 23 kts | 177° |
| 2026-05-05 13:21 | 26.19005 | 127.64820 | 12 ft | 19 kts | 178° |
| 2026-05-05 13:22 | 26.18876 | 127.64827 | 12 ft | 17 kts | 176° |
| 2026-05-05 13:22 | 26.18799 | 127.64771 | 12 ft | 13 kts | 267° |
| 2026-05-05 13:22 | 26.18797 | 127.64668 | 12 ft | 12 kts | 270° |
| 2026-05-05 13:22 | 26.18820 | 127.64623 | 12 ft | 0 kts | 358° |
| 2026-05-05 13:23 | 26.18861 | 127.64621 | 12 ft | 25 kts | 358° |
| 2026-05-05 13:23 | 26.19351 | 127.64599 | 12 ft | 108 kts | 358° |
| 2026-05-05 13:23 | 26.20280 | 127.64555 | 131 ft | 145 kts | 0° |
| 2026-05-05 13:23 | 26.21310 | 127.64506 | 559 ft | 158 kts | 1° |
| 2026-05-05 13:24 | 26.22450 | 127.64469 | 1077 ft | 168 kts | 3° |
| 2026-05-05 13:24 | 26.23631 | 127.64432 | 1663 ft | 173 kts | 4° |
| 2026-05-05 13:24 | 26.24855 | 127.64391 | 2136 ft | 181 kts | 3° |
| 2026-05-05 13:24 | 26.26144 | 127.64205 | 2632 ft | 194 kts | 344° |
| 2026-05-05 13:25 | 26.27385 | 127.63515 | 3145 ft | 204 kts | 333° |
| 2026-05-05 13:25 | 26.28642 | 127.62712 | 3656 ft | 212 kts | 331° |
| 2026-05-05 13:25 | 26.29761 | 127.61639 | 4142 ft | 219 kts | 299° |
| 2026-05-05 13:25 | 26.30024 | 127.60004 | 4656 ft | 219 kts | 261° |
| 2026-05-05 13:26 | 26.29722 | 127.58308 | 5200 ft | 225 kts | 255° |
| 2026-05-05 13:26 | 26.29361 | 127.56602 | 5711 ft | 232 kts | 254° |
| 2026-05-05 13:26 | 26.28963 | 127.54833 | 6225 ft | 237 kts | 253° |
| 2026-05-05 13:26 | 26.28548 | 127.53046 | 6732 ft | 241 kts | 253° |
| 2026-05-05 13:27 | 26.28118 | 127.51236 | 7308 ft | 242 kts | 252° |
| 2026-05-05 13:27 | 26.27681 | 127.49427 | 7791 ft | 246 kts | 252° |
| 2026-05-05 13:27 | 26.27218 | 127.47533 | 7953 ft | 262 kts | 252° |
| 2026-05-05 13:27 | 26.26721 | 127.45521 | 7993 ft | 268 kts | 252° |
| 2026-05-05 13:28 | 26.26234 | 127.43565 | 7996 ft | 257 kts | 252° |
| 2026-05-05 13:28 | 26.25756 | 127.41650 | 8001 ft | 252 kts | 252° |
| 2026-05-05 13:28 | 26.25295 | 127.39806 | 8002 ft | 247 kts | 252° |
| 2026-05-05 13:28 | 26.24831 | 127.37959 | 8005 ft | 243 kts | 252° |
| 2026-05-05 13:29 | 26.24380 | 127.36160 | 8003 ft | 240 kts | 252° |
| 2026-05-05 13:29 | 26.23937 | 127.34391 | 8001 ft | 237 kts | 251° |
| 2026-05-05 13:29 | 26.23495 | 127.32634 | 7999 ft | 234 kts | 251° |
| 2026-05-05 13:29 | 26.23056 | 127.30892 | 7997 ft | 232 kts | 251° |
| 2026-05-05 13:30 | 26.22616 | 127.29144 | 7996 ft | 233 kts | 251° |
| 2026-05-05 13:30 | 26.22179 | 127.27408 | 7996 ft | 234 kts | 251° |
| 2026-05-05 13:30 | 26.21735 | 127.25648 | 7996 ft | 236 kts | 251° |
| 2026-05-05 13:30 | 26.21289 | 127.23881 | 8000 ft | 237 kts | 251° |
| 2026-05-05 13:31 | 26.20844 | 127.22115 | 8000 ft | 238 kts | 251° |
| 2026-05-05 13:31 | 26.20394 | 127.20333 | 7996 ft | 238 kts | 251° |
| 2026-05-05 13:31 | 26.19941 | 127.18543 | 8009 ft | 238 kts | 250° |
| 2026-05-05 13:31 | 26.19492 | 127.16769 | 7998 ft | 238 kts | 251° |
| 2026-05-05 13:32 | 26.19046 | 127.14999 | 8010 ft | 239 kts | 251° |
| 2026-05-05 13:32 | 26.18598 | 127.13224 | 8011 ft | 239 kts | 250° |
| 2026-05-05 13:32 | 26.18141 | 127.11418 | 8011 ft | 238 kts | 251° |
| 2026-05-05 13:32 | 26.17691 | 127.09647 | 8011 ft | 239 kts | 251° |
| 2026-05-05 13:33 | 26.17239 | 127.07864 | 8006 ft | 239 kts | 251° |
| 2026-05-05 13:33 | 26.16785 | 127.06081 | 8006 ft | 240 kts | 251° |
| 2026-05-05 13:33 | 26.16326 | 127.04273 | 7989 ft | 241 kts | 250° |
| 2026-05-05 13:33 | 26.15876 | 127.02488 | 8012 ft | 239 kts | 251° |
| 2026-05-05 13:34 | 26.15422 | 127.00709 | 8007 ft | 241 kts | 251° |
| 2026-05-05 13:34 | 26.14966 | 126.98904 | 7995 ft | 241 kts | 251° |
| 2026-05-05 13:34 | 26.14508 | 126.97103 | 8008 ft | 241 kts | 251° |
| 2026-05-05 13:34 | 26.14057 | 126.95328 | 8007 ft | 240 kts | 251° |
| 2026-05-05 13:35 | 26.13597 | 126.93527 | 8001 ft | 240 kts | 251° |
| 2026-05-05 13:35 | 26.13136 | 126.91726 | 8009 ft | 240 kts | 251° |
| 2026-05-05 13:35 | 26.12682 | 126.89947 | 7993 ft | 240 kts | 251° |
| 2026-05-05 13:35 | 26.12229 | 126.88168 | 7998 ft | 238 kts | 251° |
| 2026-05-05 13:36 | 26.11778 | 126.86386 | 7989 ft | 238 kts | 250° |
| 2026-05-05 13:36 | 26.11329 | 126.84631 | 8007 ft | 237 kts | 251° |
| 2026-05-05 13:36 | 26.10879 | 126.82864 | 8025 ft | 237 kts | 250° |
| 2026-05-05 13:36 | 26.10423 | 126.81096 | 8007 ft | 237 kts | 251° |
| 2026-05-05 13:37 | 26.09975 | 126.79329 | 7985 ft | 231 kts | 250° |
| 2026-05-05 13:37 | 26.09544 | 126.77657 | 7956 ft | 216 kts | 251° |
| 2026-05-05 13:37 | 26.09148 | 126.76121 | 7809 ft | 205 kts | 250° |
| 2026-05-05 13:37 | 26.08754 | 126.74597 | 7557 ft | 199 kts | 251° |
| 2026-05-05 13:38 | 26.08371 | 126.73119 | 7250 ft | 199 kts | 250° |
| 2026-05-05 13:38 | 26.08026 | 126.71624 | 6839 ft | 206 kts | 258° |
| 2026-05-05 13:38 | 26.08098 | 126.70610 | 6368 ft | 223 kts | 287° |
| 2026-05-05 13:38 | 26.08960 | 126.69402 | 6071 ft | 228 kts | 324° |
| 2026-05-05 13:39 | 26.10460 | 126.68855 | 5757 ft | 230 kts | 348° |
| 2026-05-05 13:39 | 26.12070 | 126.68567 | 5381 ft | 234 kts | 350° |
| 2026-05-05 13:39 | 26.13679 | 126.68276 | 4990 ft | 237 kts | 350° |
| 2026-05-05 13:39 | 26.15328 | 126.67965 | 4584 ft | 239 kts | 351° |
| 2026-05-05 13:40 | 26.16987 | 126.67638 | 4173 ft | 242 kts | 351° |
| 2026-05-05 13:40 | 26.18652 | 126.67300 | 3758 ft | 244 kts | 351° |
| 2026-05-05 13:40 | 26.20337 | 126.66951 | 3337 ft | 246 kts | 352° |
| 2026-05-05 13:40 | 26.22012 | 126.66598 | 2922 ft | 247 kts | 352° |
| 2026-05-05 13:41 | 26.23701 | 126.66278 | 2499 ft | 245 kts | 359° |
| 2026-05-05 13:41 | 26.25330 | 126.66589 | 2171 ft | 231 kts | 23° |
| 2026-05-05 13:41 | 26.26416 | 126.67048 | 1932 ft | 224 kts | 25° |
| 2026-05-05 13:41 | 26.26823 | 126.67224 | 1849 ft | 221 kts | 25° |
| 2026-05-05 13:42 | 26.28222 | 126.67831 | 1552 ft | 211 kts | 26° |
| 2026-05-05 13:42 | 26.29516 | 126.68391 | 1294 ft | 186 kts | 26° |
| 2026-05-05 13:42 | 26.30666 | 126.68887 | 1043 ft | 165 kts | 26° |
| 2026-05-05 13:42 | 26.31665 | 126.69317 | 848 ft | 143 kts | 27° |
| 2026-05-05 13:43 | 26.32524 | 126.69685 | 679 ft | 122 kts | 27° |
| 2026-05-05 13:43 | 26.33293 | 126.70026 | 511 ft | 114 kts | 29° |
| 2026-05-05 13:43 | 26.34017 | 126.70350 | 383 ft | 110 kts | 27° |
| 2026-05-05 13:43 | 26.34746 | 126.70654 | 205 ft | 111 kts | 29° |
| 2026-05-05 13:44 | 26.35291 | 126.70903 | 92 ft | 108 kts | 29° |
| 2026-05-05 13:44 | 26.35979 | 126.71218 | 24 ft | 99 kts | 26° |
| 2026-05-05 13:44 | 26.36429 | 126.71415 | 28 ft | 31 kts | 21° |
| 2026-05-05 13:44 | 26.36541 | 126.71479 | 28 ft | 6 kts | 72° |
| 2026-05-05 13:45 | 26.36541 | 126.71500 | 29 ft | 2 kts | 101° |
| 2026-05-05 13:45 | 26.36533 | 126.71525 | 31 ft | 0 kts | 110° |
| 2026-05-05 13:45 | 26.36527 | 126.71541 | 32 ft | 2 kts | 109° |
| 2026-05-05 13:45 | 26.36517 | 126.71568 | 34 ft | 2 kts | 123° |
| 2026-05-05 13:46 | 26.36513 | 126.71575 | 34 ft | 5 kts | 130° |
| 2026-05-05 13:46 | 26.36449 | 126.71585 | 36 ft | 6 kts | 158° |
| 2026-05-05 13:46 | 26.36440 | 126.71615 | 38 ft | 6 kts | 103° |
| 2026-05-05 13:47 | 26.36428 | 126.71649 | 40 ft | 2 kts | 111° |
| 2026-05-05 13:47 | 26.36426 | 126.71655 | 40 ft | 1 kts | 111° |
| 2026-05-05 13:47 | 26.36425 | 126.71656 | 40 ft | 0 kts | 111° |